createdAt,value
2022-08-28T00:02:24.093Z,18.57
2022-08-28T00:04:50.812Z,18.61
2022-08-28T00:07:17.458Z,18.60
2022-08-28T00:09:44.207Z,18.54
2022-08-28T00:12:12.389Z,18.46
2022-08-28T00:14:39.644Z,18.48
2022-08-28T00:17:06.304Z,18.50
2022-08-28T00:19:36.697Z,18.49
2022-08-28T00:22:05.670Z,18.38
2022-08-28T00:24:32.047Z,18.37
2022-08-28T00:27:16.941Z,18.42
2022-08-28T00:29:45.083Z,18.41
2022-08-28T00:32:11.525Z,18.36
2022-08-28T00:34:38.846Z,18.30
2022-08-28T00:37:06.242Z,18.34
2022-08-28T00:39:32.942Z,18.25
2022-08-28T00:41:59.470Z,18.26
2022-08-28T00:44:27.926Z,18.27
2022-08-28T00:46:57.666Z,18.17
2022-08-28T00:49:28.280Z,18.19
2022-08-28T00:52:08.590Z,18.03
2022-08-28T00:54:59.369Z,18.11
2022-08-28T00:57:34.750Z,18.06
2022-08-28T01:00:01.743Z,18.07
2022-08-28T01:02:28.369Z,17.91
2022-08-28T01:04:55.455Z,17.99
2022-08-28T01:07:23.116Z,18.03
2022-08-28T01:09:54.031Z,18.03
2022-08-28T01:12:27.929Z,17.89
2022-08-28T01:14:59.886Z,17.90
2022-08-28T01:17:31.156Z,17.84
2022-08-28T01:20:03.239Z,17.82
2022-08-28T01:22:29.591Z,17.82
2022-08-28T01:25:00.769Z,17.81
2022-08-28T01:27:27.805Z,17.77
2022-08-28T01:29:54.315Z,17.76
2022-08-28T01:32:33.059Z,17.67
2022-08-28T01:35:00.972Z,17.75
2022-08-28T01:37:28.195Z,17.71
2022-08-28T01:39:54.693Z,17.72
2022-08-28T01:42:21.668Z,17.64
2022-08-28T01:44:49.166Z,17.75
2022-08-28T01:47:15.836Z,17.62
2022-08-28T01:49:42.269Z,17.70
2022-08-28T01:52:09.404Z,17.70
2022-08-28T01:54:38.385Z,17.71
2022-08-28T01:57:05.683Z,17.72
2022-08-28T01:59:33.216Z,17.67
2022-08-28T02:01:59.874Z,17.49
2022-08-28T02:04:31.733Z,17.37
2022-08-28T02:06:59.273Z,17.50
2022-08-28T02:09:25.700Z,17.45
2022-08-28T02:11:52.663Z,17.45
2022-08-28T02:14:19.257Z,17.27
2022-08-28T02:16:45.717Z,17.29
2022-08-28T02:19:12.248Z,17.33
2022-08-28T02:21:39.260Z,17.27
2022-08-28T02:24:05.919Z,17.24
2022-08-28T02:26:32.726Z,17.28
2022-08-28T02:28:59.417Z,17.18
2022-08-28T02:31:26.821Z,17.20
2022-08-28T02:33:53.265Z,17.19
2022-08-28T02:36:22.372Z,17.21
2022-08-28T02:38:48.856Z,17.07
2022-08-28T02:41:15.394Z,17.01
2022-08-28T02:43:41.871Z,17.08
2022-08-28T02:46:09.113Z,16.99
2022-08-28T02:48:38.035Z,16.99
2022-08-28T02:51:08.261Z,17.04
2022-08-28T02:53:35.763Z,16.98
2022-08-28T02:56:03.295Z,16.93
2022-08-28T02:58:32.596Z,16.95
2022-08-28T03:01:01.697Z,16.96
2022-08-28T03:03:31.205Z,16.82
2022-08-28T03:05:59.785Z,16.93
2022-08-28T03:08:27.384Z,17.01
2022-08-28T03:10:54.155Z,16.85
2022-08-28T03:13:23.049Z,16.90
2022-08-28T03:15:56.036Z,16.74
2022-08-28T03:18:24.347Z,16.78
2022-08-28T03:20:52.158Z,16.76
2022-08-28T03:23:27.599Z,16.85
2022-08-28T03:26:00.864Z,16.82
2022-08-28T03:28:31.941Z,16.68
2022-08-28T03:30:58.805Z,16.79
2022-08-28T03:33:26.782Z,16.71
2022-08-28T03:35:55.549Z,16.76
2022-08-28T03:38:22.942Z,16.55
2022-08-28T03:40:52.104Z,16.58
2022-08-28T03:43:21.984Z,16.65
2022-08-28T03:46:04.275Z,16.52
2022-08-28T03:48:34.648Z,16.52
2022-08-28T03:51:02.235Z,16.49
2022-08-28T03:53:29.915Z,16.55
2022-08-28T03:55:57.945Z,16.32
2022-08-28T03:58:25.172Z,16.32
2022-08-28T04:00:51.875Z,16.44
2022-08-28T04:03:18.935Z,16.40
2022-08-28T04:05:46.723Z,16.47
2022-08-28T04:08:16.665Z,16.38
2022-08-28T04:10:44.566Z,16.35
2022-08-28T04:13:12.584Z,16.42
2022-08-28T04:15:40.944Z,16.36
2022-08-28T04:18:08.360Z,16.18
2022-08-28T04:20:35.098Z,16.17
2022-08-28T04:23:03.788Z,16.25
2022-08-28T04:25:30.948Z,16.14
2022-08-28T04:27:57.508Z,16.13
2022-08-28T04:30:24.200Z,16.10
2022-08-28T04:32:50.630Z,16.18
2022-08-28T04:35:17.057Z,16.21
2022-08-28T04:37:43.790Z,16.07
2022-08-28T04:40:12.885Z,16.05
2022-08-28T04:42:40.117Z,16.07
2022-08-28T04:45:07.420Z,16.13
2022-08-28T04:47:38.813Z,16.13
2022-08-28T04:50:06.960Z,16.10
2022-08-28T04:52:33.516Z,16.11
2022-08-28T04:55:00.243Z,16.11
2022-08-28T04:57:26.670Z,16.11
2022-08-28T04:59:53.128Z,16.06
2022-08-28T05:02:19.906Z,16.08
2022-08-28T05:04:47.235Z,16.12
2022-08-28T05:07:13.865Z,16.05
2022-08-28T05:09:40.234Z,16.11
2022-08-28T05:12:06.694Z,16.14
2022-08-28T05:14:33.186Z,16.18
2022-08-28T05:16:59.819Z,16.15
2022-08-28T05:19:27.892Z,16.00
2022-08-28T05:21:54.872Z,16.08
2022-08-28T05:24:22.424Z,16.03
2022-08-28T05:26:49.006Z,16.11
2022-08-28T05:29:16.691Z,16.15
2022-08-28T05:31:43.809Z,16.17
2022-08-28T05:34:10.469Z,16.18
2022-08-28T05:36:38.850Z,16.20
2022-08-28T05:39:08.844Z,16.24
2022-08-28T05:41:36.758Z,16.23
2022-08-28T05:44:06.661Z,16.07
2022-08-28T05:46:34.535Z,16.17
2022-08-28T05:49:00.997Z,16.11
2022-08-28T05:51:28.144Z,16.18
2022-08-28T05:53:55.695Z,16.35
2022-08-28T05:56:25.230Z,16.39
2022-08-28T05:58:51.731Z,16.46
2022-08-28T06:01:19.541Z,16.50
2022-08-28T06:03:56.101Z,16.51
2022-08-28T06:06:24.573Z,16.50
2022-08-28T06:08:58.685Z,16.63
2022-08-28T06:11:27.016Z,16.70
2022-08-28T06:14:02.687Z,16.62
2022-08-28T06:16:31.187Z,16.72
2022-08-28T06:18:58.056Z,16.80
2022-08-28T06:21:24.736Z,16.80
2022-08-28T06:23:51.721Z,16.76
2022-08-28T06:26:18.244Z,16.83
2022-08-28T06:28:44.689Z,16.81
2022-08-28T06:31:28.814Z,16.82
2022-08-28T06:33:58.520Z,16.99
2022-08-28T06:36:29.986Z,16.98
2022-08-28T06:39:00.825Z,17.05
2022-08-28T06:41:28.418Z,17.08
2022-08-28T06:43:56.112Z,17.12
2022-08-28T06:46:22.954Z,17.11
2022-08-28T06:48:49.727Z,17.16
2022-08-28T06:51:16.727Z,17.22
2022-08-28T06:53:45.431Z,16.90
2022-08-28T06:56:25.698Z,17.15
2022-08-28T06:58:55.996Z,17.11
2022-08-28T07:01:24.361Z,17.19
2022-08-28T07:03:53.715Z,17.11
2022-08-28T07:06:22.109Z,17.25
2022-08-28T07:08:49.120Z,17.28
2022-08-28T07:11:19.776Z,17.51
2022-08-28T07:13:46.449Z,17.58
2022-08-28T07:16:16.106Z,17.77
2022-08-28T07:18:44.386Z,17.93
2022-08-28T07:21:12.613Z,18.10
2022-08-28T07:23:41.990Z,18.10
2022-08-28T07:26:12.652Z,18.11
2022-08-28T07:28:39.625Z,18.19
2022-08-28T07:31:13.262Z,18.37
2022-08-28T07:33:40.411Z,18.58
2022-08-28T07:36:15.775Z,18.76
2022-08-28T07:38:45.857Z,18.87
2022-08-28T07:41:26.983Z,18.98
2022-08-28T07:44:12.094Z,19.11
2022-08-28T07:46:38.684Z,18.87
2022-08-28T07:49:06.908Z,19.10
2022-08-28T07:51:33.465Z,19.30
2022-08-28T07:54:00.349Z,19.03
2022-08-28T07:56:29.607Z,18.83
2022-08-28T07:58:58.264Z,18.86
2022-08-28T08:01:26.477Z,18.91
2022-08-28T08:03:57.655Z,18.91
2022-08-28T08:06:33.891Z,18.99
2022-08-28T08:09:01.870Z,19.40
2022-08-28T08:11:28.420Z,19.53
2022-08-28T08:14:05.626Z,19.84
2022-08-28T08:16:38.939Z,20.14
2022-08-28T08:19:06.750Z,20.07
2022-08-28T08:21:33.231Z,20.55
2022-08-28T08:23:59.622Z,20.62
2022-08-28T08:26:28.097Z,20.95
2022-08-28T08:28:55.641Z,20.92
2022-08-28T08:31:33.184Z,21.27
2022-08-28T08:34:02.457Z,21.48
2022-08-28T08:36:30.512Z,21.77
2022-08-28T08:38:59.396Z,21.69
2022-08-28T08:41:48.554Z,21.73
2022-08-28T08:44:33.548Z,22.15
2022-08-28T08:47:13.999Z,22.41
2022-08-28T08:49:55.866Z,22.36
2022-08-28T08:52:42.415Z,22.66
2022-08-28T08:55:18.958Z,22.64
2022-08-28T08:57:49.323Z,22.77
2022-08-28T09:00:17.757Z,22.54
2022-08-28T09:02:54.786Z,22.73
2022-08-28T09:05:32.455Z,22.91
2022-08-28T09:08:02.637Z,22.93
2022-08-28T09:10:39.488Z,23.26
2022-08-28T09:13:16.600Z,23.35
2022-08-28T09:15:48.790Z,23.20
2022-08-28T09:18:31.912Z,23.69
2022-08-28T09:21:00.138Z,24.09
2022-08-28T09:23:29.999Z,24.00
2022-08-28T09:26:02.470Z,24.20
2022-08-28T09:28:40.924Z,24.52
2022-08-28T09:31:15.750Z,24.14
2022-08-28T09:33:48.512Z,24.65
2022-08-28T09:36:22.610Z,24.80
2022-08-28T09:39:24.513Z,24.88
2022-08-28T09:42:42.240Z,24.72
2022-08-28T09:45:21.409Z,24.99
2022-08-28T09:47:58.457Z,25.26
2022-08-28T09:50:42.373Z,25.44
2022-08-28T09:53:08.740Z,25.46
2022-08-28T09:55:47.198Z,25.90
2022-08-28T09:58:15.659Z,25.32
2022-08-28T10:00:49.873Z,25.62
2022-08-28T10:03:25.673Z,25.66
2022-08-28T10:06:06.291Z,25.71
2022-08-28T10:08:57.073Z,25.91
2022-08-28T10:11:31.572Z,26.04
2022-08-28T10:14:10.946Z,26.74
2022-08-28T10:17:06.669Z,26.35
2022-08-28T10:19:59.949Z,26.29
2022-08-28T10:22:26.349Z,26.57
2022-08-28T10:25:07.392Z,27.08
2022-08-28T10:27:53.135Z,26.80
2022-08-28T10:30:23.054Z,27.17
2022-08-28T10:33:17.126Z,26.76
2022-08-28T10:35:57.993Z,26.98
2022-08-28T10:38:37.316Z,26.54
2022-08-28T10:41:25.340Z,27.09
2022-08-28T10:43:54.067Z,27.24
2022-08-28T10:46:29.024Z,27.27
2022-08-28T10:49:18.642Z,27.35
2022-08-28T10:51:49.598Z,26.64
2022-08-28T10:54:30.423Z,27.27
2022-08-28T10:57:26.932Z,27.51
2022-08-28T10:59:54.247Z,27.05
2022-08-28T11:02:25.812Z,27.35
2022-08-28T11:04:58.367Z,27.47
2022-08-28T11:07:48.373Z,27.31
2022-08-28T11:10:23.596Z,27.74
2022-08-28T11:12:52.627Z,27.31
2022-08-28T11:15:40.975Z,26.66
2022-08-28T11:18:16.655Z,27.48
2022-08-28T11:21:05.877Z,27.48
2022-08-28T11:23:47.407Z,28.22
2022-08-28T11:26:23.581Z,28.03
2022-08-28T11:28:51.843Z,28.21
2022-08-28T11:31:28.779Z,27.97
2022-08-28T11:33:58.831Z,28.40
2022-08-28T11:36:29.733Z,28.57
2022-08-28T11:38:56.294Z,28.37
2022-08-28T11:41:27.450Z,28.53
2022-08-28T11:43:59.564Z,27.81
2022-08-28T11:46:31.542Z,27.74
2022-08-28T11:49:05.103Z,28.58
2022-08-28T11:51:56.222Z,28.73
2022-08-28T11:54:51.397Z,28.02
2022-08-28T11:57:23.767Z,28.63
2022-08-28T12:00:21.428Z,28.32
2022-08-28T12:02:56.054Z,28.93
2022-08-28T12:05:39.949Z,28.96
2022-08-28T12:08:06.850Z,28.66
2022-08-28T12:10:33.185Z,28.05
2022-08-28T12:13:03.250Z,27.95
2022-08-28T12:15:29.749Z,28.52
2022-08-28T12:18:04.776Z,28.66
2022-08-28T12:21:25.451Z,28.78
2022-08-28T12:24:08.962Z,28.14
2022-08-28T12:26:39.759Z,28.62
2022-08-28T12:29:28.083Z,28.91
2022-08-28T12:32:27.906Z,28.12
2022-08-28T12:34:57.306Z,28.30
2022-08-28T12:37:53.031Z,28.67
2022-08-28T12:40:52.762Z,28.40
2022-08-28T12:43:22.482Z,28.19
2022-08-28T12:45:53.418Z,28.53
2022-08-28T12:48:32.878Z,27.72
2022-08-28T12:51:12.558Z,28.03
2022-08-28T12:53:43.359Z,28.39
2022-08-28T12:56:14.542Z,28.11
2022-08-28T12:58:42.203Z,28.38
2022-08-28T13:01:14.661Z,27.88
2022-08-28T13:03:52.918Z,28.26
2022-08-28T13:06:32.795Z,28.01
2022-08-28T13:09:14.035Z,28.07
2022-08-28T13:11:46.772Z,28.10
2022-08-28T13:14:13.581Z,28.37
2022-08-28T13:16:46.509Z,28.25
2022-08-28T13:19:27.221Z,27.81
2022-08-28T13:22:01.925Z,28.11
2022-08-28T13:24:30.985Z,28.45
2022-08-28T13:27:02.327Z,28.30
2022-08-28T13:29:29.324Z,27.60
2022-08-28T13:32:05.605Z,27.67
2022-08-28T13:34:39.197Z,27.74
2022-08-28T13:37:40.942Z,27.60
2022-08-28T13:40:16.006Z,27.57
2022-08-28T13:42:55.996Z,27.85
2022-08-28T13:45:22.429Z,28.10
2022-08-28T13:47:48.816Z,27.83
2022-08-28T13:50:15.298Z,27.41
2022-08-28T13:52:42.136Z,27.65
2022-08-28T13:55:09.810Z,27.48
2022-08-28T13:57:37.093Z,27.48
2022-08-28T14:00:04.744Z,27.63
2022-08-28T14:02:49.647Z,27.13
2022-08-28T14:05:16.121Z,26.58
2022-08-28T14:07:42.521Z,26.70
2022-08-28T14:10:11.522Z,27.08
2022-08-28T14:12:38.027Z,27.03
2022-08-28T14:15:05.426Z,27.03
2022-08-28T14:17:31.864Z,26.42
2022-08-28T14:20:00.217Z,26.26
2022-08-28T14:22:27.386Z,26.57
2022-08-28T14:24:53.981Z,26.63
2022-08-28T14:27:20.494Z,26.76
2022-08-28T14:29:47.022Z,26.66
2022-08-28T14:32:13.466Z,26.73
2022-08-28T14:34:40.020Z,26.69
2022-08-28T14:37:06.609Z,26.74
2022-08-28T14:39:33.554Z,26.74
2022-08-28T14:42:00.017Z,26.98
2022-08-28T14:44:26.502Z,26.70
2022-08-28T14:46:56.902Z,26.48
2022-08-28T14:49:25.656Z,26.53
2022-08-28T14:51:53.717Z,26.30
2022-08-28T14:54:22.565Z,26.07
2022-08-28T14:56:49.979Z,26.15
2022-08-28T14:59:24.464Z,26.29
2022-08-28T15:01:52.368Z,26.23
2022-08-28T15:04:22.749Z,25.80
2022-08-28T15:06:54.821Z,25.81
2022-08-28T15:09:21.265Z,25.80
2022-08-28T15:11:47.718Z,25.74
2022-08-28T15:14:14.162Z,25.49
2022-08-28T15:16:43.309Z,25.28
2022-08-28T15:19:13.089Z,25.34
2022-08-28T15:21:47.133Z,25.47
2022-08-28T15:24:16.150Z,25.44
2022-08-28T15:26:42.843Z,25.31
2022-08-28T15:29:10.778Z,25.24
2022-08-28T15:31:41.525Z,25.20
2022-08-28T15:34:13.872Z,25.08
2022-08-28T15:36:42.213Z,24.95
2022-08-28T15:39:27.886Z,24.74
2022-08-28T15:41:54.570Z,24.62
2022-08-28T15:44:21.187Z,24.57
2022-08-28T15:46:53.845Z,24.56
2022-08-28T15:49:23.808Z,24.38
2022-08-28T15:51:50.802Z,24.42
2022-08-28T15:54:17.417Z,24.31
2022-08-28T15:56:43.866Z,24.25
2022-08-28T15:59:10.577Z,24.30
2022-08-28T16:01:38.392Z,24.24
2022-08-28T16:04:06.604Z,24.01
2022-08-28T16:06:34.708Z,23.97
2022-08-28T16:09:01.199Z,23.91
2022-08-28T16:11:28.085Z,23.87
2022-08-28T16:13:58.990Z,23.95
2022-08-28T16:16:25.431Z,23.85
2022-08-28T16:18:54.196Z,23.79
2022-08-28T16:21:20.645Z,23.73
2022-08-28T16:23:48.232Z,23.77
2022-08-28T16:26:15.864Z,23.57
2022-08-28T16:28:44.691Z,23.44
2022-08-28T16:31:19.223Z,23.46
2022-08-28T16:33:48.292Z,23.49
2022-08-28T16:36:15.590Z,23.30
2022-08-28T16:38:45.450Z,23.23
2022-08-28T16:41:21.747Z,23.32
2022-08-28T16:43:49.355Z,23.32
2022-08-28T16:46:20.057Z,23.13
2022-08-28T16:48:47.820Z,23.20
2022-08-28T16:51:15.455Z,23.26
2022-08-28T16:53:42.784Z,23.19
2022-08-28T16:56:11.258Z,23.07
2022-08-28T16:58:42.444Z,23.07
2022-08-28T17:01:10.604Z,22.94
2022-08-28T17:03:38.618Z,22.98
2022-08-28T17:06:13.170Z,22.89
2022-08-28T17:08:39.655Z,22.86
2022-08-28T17:11:06.821Z,22.78
2022-08-28T17:13:34.740Z,22.76
2022-08-28T17:16:01.774Z,22.63
2022-08-28T17:18:28.615Z,22.65
2022-08-28T17:21:13.494Z,22.58
2022-08-28T17:23:39.925Z,22.45
2022-08-28T17:26:06.468Z,22.40
2022-08-28T17:28:33.486Z,22.29
2022-08-28T17:31:00.304Z,22.28
2022-08-28T17:33:26.810Z,22.30
2022-08-28T17:35:58.180Z,22.31
2022-08-28T17:38:26.333Z,22.14
2022-08-28T17:40:53.255Z,22.04
2022-08-28T17:43:20.649Z,21.93
2022-08-28T17:45:47.413Z,22.01
2022-08-28T17:48:14.407Z,21.89
2022-08-28T17:50:41.061Z,21.75
2022-08-28T17:53:07.526Z,21.75
2022-08-28T17:55:33.940Z,21.63
2022-08-28T17:58:00.418Z,21.53
2022-08-28T18:00:26.850Z,21.52
2022-08-28T18:02:54.364Z,21.55
2022-08-28T18:05:20.986Z,21.44
2022-08-28T18:07:47.573Z,21.27
2022-08-28T18:10:14.082Z,21.16
2022-08-28T18:12:41.403Z,21.11
2022-08-28T18:15:10.183Z,21.03
2022-08-28T18:17:38.188Z,21.07
2022-08-28T18:20:06.934Z,21.01
2022-08-28T18:22:33.377Z,21.00
2022-08-28T18:24:59.879Z,20.97
2022-08-28T18:27:31.363Z,20.87
2022-08-28T18:29:58.618Z,20.79
2022-08-28T18:32:25.535Z,20.69
2022-08-28T18:34:52.206Z,20.65
2022-08-28T18:37:18.585Z,20.57
2022-08-28T18:39:45.144Z,20.52
2022-08-28T18:42:11.827Z,20.44
2022-08-28T18:44:38.288Z,20.21
2022-08-28T18:47:04.809Z,20.08
2022-08-28T18:49:31.333Z,19.94
2022-08-28T18:51:57.860Z,19.94
2022-08-28T18:54:24.326Z,19.84
2022-08-28T18:56:51.442Z,19.61
2022-08-28T18:59:18.852Z,19.57
2022-08-28T19:01:45.559Z,19.39
2022-08-28T19:04:12.102Z,19.26
2022-08-28T19:06:40.929Z,18.91
2022-08-28T19:09:07.432Z,18.92
2022-08-28T19:11:35.704Z,18.70
2022-08-28T19:14:03.801Z,18.57
2022-08-28T19:16:31.819Z,18.66
2022-08-28T19:18:58.332Z,18.67
2022-08-28T19:21:25.047Z,18.67
2022-08-28T19:23:55.915Z,18.69
2022-08-28T19:26:24.479Z,18.56
2022-08-28T19:28:51.443Z,18.48
2022-08-28T19:31:18.257Z,18.60
2022-08-28T19:33:46.752Z,18.57
2022-08-28T19:36:14.114Z,18.51
2022-08-28T19:38:41.556Z,18.52
2022-08-28T19:41:10.105Z,18.39
2022-08-28T19:43:44.204Z,18.18
2022-08-28T19:46:18.218Z,18.23
2022-08-28T19:48:46.661Z,18.16
2022-08-28T19:51:14.380Z,18.22
2022-08-28T19:53:44.680Z,18.18
2022-08-28T19:56:11.116Z,18.26
2022-08-28T19:58:37.581Z,18.19
2022-08-28T20:01:04.864Z,18.27
2022-08-28T20:03:31.726Z,18.29
2022-08-28T20:06:03.622Z,18.36
2022-08-28T20:08:30.708Z,18.33
2022-08-28T20:10:57.317Z,18.14
2022-08-28T20:13:23.878Z,18.12
2022-08-28T20:15:50.460Z,18.05
2022-08-28T20:18:16.902Z,18.03
2022-08-28T20:20:45.897Z,18.00
2022-08-28T20:23:12.356Z,18.09
2022-08-28T20:25:39.183Z,18.08
2022-08-28T20:28:05.748Z,18.17
2022-08-28T20:30:32.146Z,17.96
2022-08-28T20:33:01.234Z,17.97
2022-08-28T20:35:27.807Z,17.96
2022-08-28T20:37:54.189Z,17.84
2022-08-28T20:40:21.662Z,17.86
2022-08-28T20:42:48.871Z,17.73
2022-08-28T20:45:16.936Z,17.61
2022-08-28T20:47:44.264Z,17.55
2022-08-28T20:50:12.235Z,17.42
2022-08-28T20:52:38.834Z,17.41
2022-08-28T20:55:07.587Z,17.29
2022-08-28T20:57:34.412Z,17.16
2022-08-28T21:00:05.344Z,17.15
2022-08-28T21:02:33.055Z,17.27
2022-08-28T21:04:59.617Z,17.27
2022-08-28T21:07:26.647Z,17.48
2022-08-28T21:10:05.055Z,17.35
2022-08-28T21:12:34.911Z,17.52
2022-08-28T21:15:01.551Z,17.34
2022-08-28T21:17:29.638Z,17.49
2022-08-28T21:19:59.949Z,17.37
2022-08-28T21:22:26.428Z,17.60
2022-08-28T21:24:52.813Z,17.55
2022-08-28T21:27:19.244Z,17.60
2022-08-28T21:29:46.015Z,17.51
2022-08-28T21:32:12.539Z,17.52
2022-08-28T21:34:39.068Z,17.52
2022-08-28T21:37:06.256Z,17.41
2022-08-28T21:39:32.699Z,17.40
2022-08-28T21:41:59.165Z,17.37
2022-08-28T21:44:25.567Z,17.34
2022-08-28T21:46:52.038Z,17.21
2022-08-28T21:49:18.598Z,17.20
2022-08-28T21:51:44.994Z,17.18
2022-08-28T21:54:11.518Z,17.09
2022-08-28T21:56:37.941Z,17.18
2022-08-28T21:59:04.446Z,17.16
2022-08-28T22:01:31.044Z,17.04
2022-08-28T22:03:57.640Z,16.98
2022-08-28T22:06:25.292Z,17.01
2022-08-28T22:08:52.861Z,17.01
2022-08-28T22:11:24.497Z,16.88
2022-08-28T22:13:52.520Z,16.86
2022-08-28T22:16:19.717Z,16.79
2022-08-28T22:18:46.261Z,16.74
2022-08-28T22:21:34.740Z,16.80
2022-08-28T22:24:01.827Z,16.91
2022-08-28T22:26:28.343Z,16.81
2022-08-28T22:28:55.849Z,16.62
2022-08-28T22:31:22.333Z,16.70
2022-08-28T22:33:48.876Z,16.63
2022-08-28T22:36:17.333Z,16.68
2022-08-28T22:38:49.770Z,16.51
2022-08-28T22:41:20.164Z,16.55
2022-08-28T22:43:48.281Z,16.58
2022-08-28T22:46:16.813Z,16.63
2022-08-28T22:48:43.292Z,16.51
2022-08-28T22:51:13.753Z,16.56
2022-08-28T22:53:42.300Z,16.69
2022-08-28T22:56:10.072Z,16.66
2022-08-28T22:58:37.177Z,16.72
2022-08-28T23:01:17.601Z,16.65
2022-08-28T23:03:44.957Z,16.53
2022-08-28T23:06:12.052Z,16.47
2022-08-28T23:08:38.570Z,16.38
2022-08-28T23:11:05.762Z,16.41
2022-08-28T23:13:33.071Z,16.35
2022-08-28T23:16:01.702Z,16.35
2022-08-28T23:18:28.834Z,16.39
2022-08-28T23:20:56.017Z,16.29
2022-08-28T23:23:23.375Z,16.25
2022-08-28T23:25:50.433Z,16.23
2022-08-28T23:28:17.783Z,16.12
2022-08-28T23:30:48.541Z,15.99
2022-08-28T23:33:23.785Z,15.97
2022-08-28T23:35:51.882Z,15.96
2022-08-28T23:38:18.744Z,15.88
2022-08-28T23:40:46.021Z,15.78
2022-08-28T23:43:12.417Z,15.59
2022-08-28T23:45:40.690Z,15.57
2022-08-28T23:48:07.789Z,15.58
2022-08-28T23:50:34.487Z,15.65
2022-08-28T23:53:01.305Z,15.53
2022-08-28T23:55:28.028Z,15.36
2022-08-28T23:57:54.465Z,15.31
